sensor_id;sensor_type;location;lat;lon;timestamp;pressure;altitude;pressure_sealevel;temperature;humidity
20444;BME280;10381;53.730;10.010;2023-07-20T00:02:06;101901.09;;;12.70;100.00
20444;BME280;10381;53.730;10.010;2023-07-20T00:06:08;101903.88;;;12.69;100.00
20444;BME280;10381;53.730;10.010;2023-07-20T00:10:08;101899.28;;;12.71;100.00
20444;BME280;10381;53.730;10.010;2023-07-20T00:14:09;101895.06;;;12.68;100.00
20444;BME280;10381;53.730;10.010;2023-07-20T00:18:09;101891.56;;;12.68;100.00
20444;BME280;10381;53.730;10.010;2023-07-20T00:22:09;101895.91;;;12.69;100.00
20444;BME280;10381;53.730;10.010;2023-07-20T00:26:10;101895.06;;;12.68;100.00
20444;BME280;10381;53.730;10.010;2023-07-20T00:30:10;101897.97;;;12.65;100.00
20444;BME280;10381;53.730;10.010;2023-07-20T00:34:11;101906.16;;;12.62;100.00
20444;BME280;10381;53.730;10.010;2023-07-20T00:38:11;101911.63;;;12.61;100.00
20444;BME280;10381;53.730;10.010;2023-07-20T00:42:11;101937.13;;;12.63;100.00
20444;BME280;10381;53.730;10.010;2023-07-20T00:46:12;101948.50;;;12.65;100.00
20444;BME280;10381;53.730;10.010;2023-07-20T00:50:12;101959.97;;;12.66;100.00
20444;BME280;10381;53.730;10.010;2023-07-20T00:54:12;101966.38;;;12.63;100.00
20444;BME280;10381;53.730;10.010;2023-07-20T00:58:13;101979.53;;;12.65;100.00
20444;BME280;10381;53.730;10.010;2023-07-20T01:02:13;101996.56;;;12.62;100.00
20444;BME280;10381;53.730;10.010;2023-07-20T01:14:38;102046.34;;;12.60;100.00
20444;BME280;10381;53.730;10.010;2023-07-20T01:18:39;102078.25;;;12.60;100.00
20444;BME280;10381;53.730;10.010;2023-07-20T01:27:26;102113.78;;;12.59;100.00
20444;BME280;10381;53.730;10.010;2023-07-20T01:31:37;102136.25;;;12.55;100.00
20444;BME280;10381;53.730;10.010;2023-07-20T01:35:40;102136.47;;;12.52;100.00
20444;BME280;10381;53.730;10.010;2023-07-20T01:39:41;102132.84;;;12.53;100.00
20444;BME280;10381;53.730;10.010;2023-07-20T01:43:42;102148.09;;;12.51;100.00
20444;BME280;10381;53.730;10.010;2023-07-20T01:47:42;102152.66;;;12.49;100.00
20444;BME280;10381;53.730;10.010;2023-07-20T01:51:43;102150.00;;;12.49;100.00
20444;BME280;10381;53.730;10.010;2023-07-20T01:55:43;102152.75;;;12.47;100.00
20444;BME280;10381;53.730;10.010;2023-07-20T01:59:44;102162.56;;;12.47;100.00
20444;BME280;10381;53.730;10.010;2023-07-20T02:03:44;102159.25;;;12.43;100.00
20444;BME280;10381;53.730;10.010;2023-07-20T02:07:44;102164.47;;;12.45;100.00
20444;BME280;10381;53.730;10.010;2023-07-20T02:11:45;102181.06;;;12.48;100.00
20444;BME280;10381;53.730;10.010;2023-07-20T02:15:45;102194.56;;;12.45;100.00
20444;BME280;10381;53.730;10.010;2023-07-20T02:19:51;102190.09;;;12.46;100.00
20444;BME280;10381;53.730;10.010;2023-07-20T02:23:52;102203.38;;;12.46;100.00
20444;BME280;10381;53.730;10.010;2023-07-20T02:27:52;102213.06;;;12.47;100.00
20444;BME280;10381;53.730;10.010;2023-07-20T02:31:52;102207.66;;;12.48;100.00
20444;BME280;10381;53.730;10.010;2023-07-20T02:35:53;102206.16;;;12.44;100.00
20444;BME280;10381;53.730;10.010;2023-07-20T02:39:53;102212.44;;;12.43;100.00
20444;BME280;10381;53.730;10.010;2023-07-20T02:43:53;102217.75;;;12.43;100.00
20444;BME280;10381;53.730;10.010;2023-07-20T02:47:53;102219.44;;;12.44;100.00
20444;BME280;10381;53.730;10.010;2023-07-20T02:51:54;102220.19;;;12.46;100.00
20444;BME280;10381;53.730;10.010;2023-07-20T02:55:54;102221.13;;;12.45;100.00
20444;BME280;10381;53.730;10.010;2023-07-20T02:59:54;102208.47;;;12.49;100.00
20444;BME280;10381;53.730;10.010;2023-07-20T03:03:55;102211.25;;;12.47;100.00
20444;BME280;10381;53.730;10.010;2023-07-20T03:07:55;102227.28;;;12.46;100.00
20444;BME280;10381;53.730;10.010;2023-07-20T03:11:56;102232.41;;;12.49;100.00
20444;BME280;10381;53.730;10.010;2023-07-20T03:15:56;102237.50;;;12.52;100.00
20444;BME280;10381;53.730;10.010;2023-07-20T03:19:56;102231.19;;;12.53;100.00
20444;BME280;10381;53.730;10.010;2023-07-20T03:23:57;102235.81;;;12.51;100.00
20444;BME280;10381;53.730;10.010;2023-07-20T03:27:57;102245.47;;;12.52;100.00
20444;BME280;10381;53.730;10.010;2023-07-20T03:31:57;102242.72;;;12.53;100.00
20444;BME280;10381;53.730;10.010;2023-07-20T03:35:59;102240.16;;;12.52;100.00
20444;BME280;10381;53.730;10.010;2023-07-20T03:39:59;102249.94;;;12.51;100.00
20444;BME280;10381;53.730;10.010;2023-07-20T03:44:00;102257.06;;;12.51;100.00
20444;BME280;10381;53.730;10.010;2023-07-20T03:48:00;102259.50;;;12.54;100.00
20444;BME280;10381;53.730;10.010;2023-07-20T03:52:01;102254.41;;;12.51;100.00
20444;BME280;10381;53.730;10.010;2023-07-20T03:56:03;102252.69;;;12.50;100.00
20444;BME280;10381;53.730;10.010;2023-07-20T04:00:04;102252.69;;;12.50;100.00
20444;BME280;10381;53.730;10.010;2023-07-20T04:04:07;102254.63;;;12.48;100.00
20444;BME280;10381;53.730;10.010;2023-07-20T04:08:08;102266.13;;;12.48;100.00
20444;BME280;10381;53.730;10.010;2023-07-20T04:12:08;102276.53;;;12.51;100.00
20444;BME280;10381;53.730;10.010;2023-07-20T04:16:08;102276.22;;;12.43;100.00
20444;BME280;10381;53.730;10.010;2023-07-20T04:20:09;102279.84;;;12.42;100.00
20444;BME280;10381;53.730;10.010;2023-07-20T04:24:09;102274.44;;;12.44;100.00
20444;BME280;10381;53.730;10.010;2023-07-20T04:28:10;102283.66;;;12.51;100.00
20444;BME280;10381;53.730;10.010;2023-07-20T04:32:10;102282.03;;;12.61;100.00
20444;BME280;10381;53.730;10.010;2023-07-20T04:36:10;102282.91;;;12.49;100.00
20444;BME280;10381;53.730;10.010;2023-07-20T04:40:12;102280.25;;;12.49;100.00
20444;BME280;10381;53.730;10.010;2023-07-20T04:44:13;102280.53;;;12.57;100.00
20444;BME280;10381;53.730;10.010;2023-07-20T04:48:15;102297.63;;;12.90;100.00
20444;BME280;10381;53.730;10.010;2023-07-20T04:52:16;102309.44;;;13.34;100.00
20444;BME280;10381;53.730;10.010;2023-07-20T04:56:16;102268.00;;;13.18;100.00
20444;BME280;10381;53.730;10.010;2023-07-20T05:00:17;102264.72;;;13.50;100.00
20444;BME280;10381;53.730;10.010;2023-07-20T05:04:17;102255.66;;;13.75;100.00
20444;BME280;10381;53.730;10.010;2023-07-20T05:08:18;102261.47;;;14.03;100.00
20444;BME280;10381;53.730;10.010;2023-07-20T05:12:18;102265.09;;;14.02;100.00
20444;BME280;10381;53.730;10.010;2023-07-20T05:16:18;102290.66;;;14.04;100.00
20444;BME280;10381;53.730;10.010;2023-07-20T05:20:19;102292.72;;;13.78;100.00
20444;BME280;10381;53.730;10.010;2023-07-20T05:24:20;102303.47;;;13.54;100.00
20444;BME280;10381;53.730;10.010;2023-07-20T05:28:20;102319.97;;;13.82;100.00
20444;BME280;10381;53.730;10.010;2023-07-20T05:32:20;102346.25;;;14.20;100.00
20444;BME280;10381;53.730;10.010;2023-07-20T05:36:21;102347.69;;;14.36;100.00
20444;BME280;10381;53.730;10.010;2023-07-20T05:40:21;102316.06;;;14.42;100.00
20444;BME280;10381;53.730;10.010;2023-07-20T05:44:21;102296.69;;;14.95;100.00
20444;BME280;10381;53.730;10.010;2023-07-20T05:48:21;102209.47;;;14.96;100.00
20444;BME280;10381;53.730;10.010;2023-07-20T05:52:22;102104.41;;;14.34;100.00
20444;BME280;10381;53.730;10.010;2023-07-20T05:56:22;102094.41;;;14.68;100.00
20444;BME280;10381;53.730;10.010;2023-07-20T06:00:23;102052.81;;;14.44;100.00
20444;BME280;10381;53.730;10.010;2023-07-20T06:04:26;102048.69;;;15.03;100.00
20444;BME280;10381;53.730;10.010;2023-07-20T06:08:28;101932.56;;;15.19;100.00
20444;BME280;10381;53.730;10.010;2023-07-20T06:12:28;101870.63;;;15.73;100.00
20444;BME280;10381;53.730;10.010;2023-07-20T06:16:29;101741.69;;;15.99;100.00
20444;BME280;10381;53.730;10.010;2023-07-20T06:20:29;101646.06;;;15.28;100.00
20444;BME280;10381;53.730;10.010;2023-07-20T06:24:29;101634.22;;;15.68;100.00
20444;BME280;10381;53.730;10.010;2023-07-20T06:28:29;101555.69;;;16.06;100.00
20444;BME280;10381;53.730;10.010;2023-07-20T06:32:30;101529.50;;;16.10;100.00
20444;BME280;10381;53.730;10.010;2023-07-20T06:36:30;101535.84;;;15.73;100.00
20444;BME280;10381;53.730;10.010;2023-07-20T06:40:31;101563.09;;;15.94;100.00
20444;BME280;10381;53.730;10.010;2023-07-20T06:44:31;101538.66;;;16.07;100.00
20444;BME280;10381;53.730;10.010;2023-07-20T06:48:31;101520.94;;;16.24;100.00
20444;BME280;10381;53.730;10.010;2023-07-20T06:52:32;101452.63;;;16.82;100.00
20444;BME280;10381;53.730;10.010;2023-07-20T06:56:32;101420.06;;;16.08;100.00
20444;BME280;10381;53.730;10.010;2023-07-20T07:00:32;101410.09;;;16.45;100.00
20444;BME280;10381;53.730;10.010;2023-07-20T07:04:32;101397.97;;;16.67;100.00
20444;BME280;10381;53.730;10.010;2023-07-20T07:08:33;101399.56;;;17.36;100.00
20444;BME280;10381;53.730;10.010;2023-07-20T07:12:33;101351.31;;;16.53;100.00
20444;BME280;10381;53.730;10.010;2023-07-20T07:16:34;101342.13;;;16.55;100.00
20444;BME280;10381;53.730;10.010;2023-07-20T07:20:34;101363.88;;;16.69;100.00
20444;BME280;10381;53.730;10.010;2023-07-20T07:24:34;101362.97;;;16.17;100.00
20444;BME280;10381;53.730;10.010;2023-07-20T07:28:35;101391.25;;;15.76;100.00
20444;BME280;10381;53.730;10.010;2023-07-20T07:32:35;101414.22;;;15.69;100.00
20444;BME280;10381;53.730;10.010;2023-07-20T07:36:35;101423.97;;;15.96;100.00
20444;BME280;10381;53.730;10.010;2023-07-20T07:40:36;101432.63;;;15.54;100.00
20444;BME280;10381;53.730;10.010;2023-07-20T07:44:36;101483.69;;;15.23;100.00
20444;BME280;10381;53.730;10.010;2023-07-20T07:48:36;101479.09;;;15.61;100.00
20444;BME280;10381;53.730;10.010;2023-07-20T07:52:36;101469.69;;;16.11;100.00
20444;BME280;10381;53.730;10.010;2023-07-20T07:56:37;101435.94;;;16.10;100.00
20444;BME280;10381;53.730;10.010;2023-07-20T08:00:37;101430.44;;;16.37;100.00
20444;BME280;10381;53.730;10.010;2023-07-20T08:04:37;101405.13;;;16.24;100.00
20444;BME280;10381;53.730;10.010;2023-07-20T08:08:39;101401.59;;;16.49;100.00
20444;BME280;10381;53.730;10.010;2023-07-20T08:12:39;101408.88;;;16.65;100.00
20444;BME280;10381;53.730;10.010;2023-07-20T08:16:39;101424.00;;;16.22;100.00
20444;BME280;10381;53.730;10.010;2023-07-20T08:20:43;101433.53;;;16.25;100.00
20444;BME280;10381;53.730;10.010;2023-07-20T08:24:43;101451.75;;;16.03;100.00
20444;BME280;10381;53.730;10.010;2023-07-20T08:28:44;101448.91;;;16.23;100.00
20444;BME280;10381;53.730;10.010;2023-07-20T08:32:45;101465.41;;;16.70;100.00
20444;BME280;10381;53.730;10.010;2023-07-20T08:36:45;101389.88;;;17.52;100.00
20444;BME280;10381;53.730;10.010;2023-07-20T08:40:46;101331.78;;;17.36;100.00
20444;BME280;10381;53.730;10.010;2023-07-20T08:44:46;101299.81;;;17.34;100.00
20444;BME280;10381;53.730;10.010;2023-07-20T08:48:48;101248.53;;;17.70;100.00
20444;BME280;10381;53.730;10.010;2023-07-20T08:52:52;101208.09;;;17.16;100.00
20444;BME280;10381;53.730;10.010;2023-07-20T08:56:54;101198.00;;;17.51;100.00
20444;BME280;10381;53.730;10.010;2023-07-20T09:00:58;101186.19;;;18.55;100.00
20444;BME280;10381;53.730;10.010;2023-07-20T09:04:59;101147.69;;;18.40;100.00
20444;BME280;10381;53.730;10.010;2023-07-20T09:08:59;101184.91;;;17.80;100.00
20444;BME280;10381;53.730;10.010;2023-07-20T09:13:00;101291.03;;;16.32;100.00
20444;BME280;10381;53.730;10.010;2023-07-20T09:17:00;101352.09;;;16.79;100.00
20444;BME280;10381;53.730;10.010;2023-07-20T09:21:05;101324.06;;;17.16;100.00
20444;BME280;10381;53.730;10.010;2023-07-20T09:25:08;101352.31;;;16.26;100.00
20444;BME280;10381;53.730;10.010;2023-07-20T09:29:11;101405.31;;;16.91;100.00
20444;BME280;10381;53.730;10.010;2023-07-20T09:33:18;101361.53;;;16.66;100.00
20444;BME280;10381;53.730;10.010;2023-07-20T09:37:22;101343.44;;;17.02;100.00
20444;BME280;10381;53.730;10.010;2023-07-20T09:41:23;101312.34;;;17.09;100.00
20444;BME280;10381;53.730;10.010;2023-07-20T09:45:23;101290.59;;;17.04;100.00
20444;BME280;10381;53.730;10.010;2023-07-20T09:49:24;101268.31;;;17.36;100.00
20444;BME280;10381;53.730;10.010;2023-07-20T09:53:25;101254.06;;;18.24;100.00
20444;BME280;10381;53.730;10.010;2023-07-20T09:57:26;101232.38;;;18.97;100.00
20444;BME280;10381;53.730;10.010;2023-07-20T10:01:26;101219.38;;;18.54;100.00
20444;BME280;10381;53.730;10.010;2023-07-20T10:05:27;101336.88;;;16.88;100.00
20444;BME280;10381;53.730;10.010;2023-07-20T10:09:28;101607.56;;;14.15;100.00
20444;BME280;10381;53.730;10.010;2023-07-20T10:13:30;102133.47;;;13.93;100.00
20444;BME280;10381;53.730;10.010;2023-07-20T10:17:32;102125.59;;;13.92;100.00
20444;BME280;10381;53.730;10.010;2023-07-20T10:21:35;102134.78;;;13.88;100.00
20444;BME280;10381;53.730;10.010;2023-07-20T10:25:37;102174.84;;;14.20;100.00
20444;BME280;10381;53.730;10.010;2023-07-20T10:29:40;102208.28;;;14.88;100.00
20444;BME280;10381;53.730;10.010;2023-07-20T10:33:41;102195.22;;;15.27;100.00
20444;BME280;10381;53.730;10.010;2023-07-20T10:37:54;102128.06;;;15.72;100.00
20444;BME280;10381;53.730;10.010;2023-07-20T10:42:15;101951.28;;;16.16;100.00
20444;BME280;10381;53.730;10.010;2023-07-20T10:46:33;101727.25;;;17.01;100.00
20444;BME280;10381;53.730;10.010;2023-07-20T10:50:35;101538.06;;;17.60;100.00
20444;BME280;10381;53.730;10.010;2023-07-20T10:54:46;101411.69;;;17.90;100.00
20444;BME280;10381;53.730;10.010;2023-07-20T10:58:47;101373.28;;;18.22;100.00
20444;BME280;10381;53.730;10.010;2023-07-20T11:02:49;101321.44;;;18.38;100.00
20444;BME280;10381;53.730;10.010;2023-07-20T11:06:55;101329.53;;;19.00;100.00
20444;BME280;10381;53.730;10.010;2023-07-20T11:11:29;101337.44;;;17.98;100.00
20444;BME280;10381;53.730;10.010;2023-07-20T11:15:47;101373.47;;;17.55;100.00
20444;BME280;10381;53.730;10.010;2023-07-20T11:19:48;101386.25;;;18.58;100.00
20444;BME280;10381;53.730;10.010;2023-07-20T11:23:49;101318.03;;;17.14;100.00
20444;BME280;10381;53.730;10.010;2023-07-20T11:27:49;101364.03;;;17.01;100.00
20444;BME280;10381;53.730;10.010;2023-07-20T11:31:49;101421.28;;;17.09;100.00
20444;BME280;10381;53.730;10.010;2023-07-20T11:35:50;101524.94;;;16.02;100.00
20444;BME280;10381;53.730;10.010;2023-07-20T11:39:56;101641.78;;;15.45;100.00
20444;BME280;10381;53.730;10.010;2023-07-20T11:43:56;101739.81;;;14.96;100.00
20444;BME280;10381;53.730;10.010;2023-07-20T11:47:58;101802.56;;;14.80;100.00
20444;BME280;10381;53.730;10.010;2023-07-20T11:51:58;101840.97;;;15.08;100.00
20444;BME280;10381;53.730;10.010;2023-07-20T11:55:59;101848.13;;;15.37;100.00
20444;BME280;10381;53.730;10.010;2023-07-20T12:00:02;101791.44;;;15.63;100.00
20444;BME280;10381;53.730;10.010;2023-07-20T12:04:11;101709.63;;;15.99;100.00
20444;BME280;10381;53.730;10.010;2023-07-20T12:08:11;101657.75;;;16.55;100.00
20444;BME280;10381;53.730;10.010;2023-07-20T12:12:11;101606.47;;;17.04;100.00
20444;BME280;10381;53.730;10.010;2023-07-20T12:16:14;101573.03;;;17.85;100.00
20444;BME280;10381;53.730;10.010;2023-07-20T12:20:27;101487.25;;;17.18;100.00
20444;BME280;10381;53.730;10.010;2023-07-20T12:24:29;101464.91;;;17.60;100.00
20444;BME280;10381;53.730;10.010;2023-07-20T12:28:29;101436.31;;;17.85;100.00
20444;BME280;10381;53.730;10.010;2023-07-20T12:32:30;101429.72;;;18.37;100.00
20444;BME280;10381;53.730;10.010;2023-07-20T12:36:30;101364.09;;;18.00;100.00
20444;BME280;10381;53.730;10.010;2023-07-20T12:40:31;101365.25;;;18.05;100.00
20444;BME280;10381;53.730;10.010;2023-07-20T12:44:32;101331.78;;;17.44;100.00
20444;BME280;10381;53.730;10.010;2023-07-20T12:48:32;101288.72;;;17.95;100.00
20444;BME280;10381;53.730;10.010;2023-07-20T12:52:36;101273.09;;;17.98;100.00
20444;BME280;10381;53.730;10.010;2023-07-20T12:56:37;101283.75;;;18.62;100.00
20444;BME280;10381;53.730;10.010;2023-07-20T13:00:37;101288.06;;;18.71;100.00
20444;BME280;10381;53.730;10.010;2023-07-20T13:04:37;101276.16;;;18.35;100.00
20444;BME280;10381;53.730;10.010;2023-07-20T13:08:38;101294.41;;;18.39;100.00
20444;BME280;10381;53.730;10.010;2023-07-20T13:12:38;101331.09;;;17.91;100.00
20444;BME280;10381;53.730;10.010;2023-07-20T13:16:38;101337.28;;;17.51;100.00
20444;BME280;10381;53.730;10.010;2023-07-20T13:20:39;101330.94;;;17.93;100.00
20444;BME280;10381;53.730;10.010;2023-07-20T13:24:39;101300.03;;;18.13;100.00
20444;BME280;10381;53.730;10.010;2023-07-20T13:28:39;101284.97;;;18.83;100.00
20444;BME280;10381;53.730;10.010;2023-07-20T13:32:40;101279.19;;;19.55;100.00
20444;BME280;10381;53.730;10.010;2023-07-20T13:36:40;101202.41;;;19.90;100.00
20444;BME280;10381;53.730;10.010;2023-07-20T13:40:40;101078.78;;;19.31;100.00
20444;BME280;10381;53.730;10.010;2023-07-20T13:44:42;101040.06;;;18.43;100.00
20444;BME280;10381;53.730;10.010;2023-07-20T13:48:42;101066.09;;;17.88;100.00
20444;BME280;10381;53.730;10.010;2023-07-20T13:52:43;101076.69;;;17.73;100.00
20444;BME280;10381;53.730;10.010;2023-07-20T13:56:43;101038.91;;;17.60;100.00
20444;BME280;10381;53.730;10.010;2023-07-20T14:00:43;101062.09;;;17.36;100.00
20444;BME280;10381;53.730;10.010;2023-07-20T14:04:44;101072.63;;;17.46;100.00
20444;BME280;10381;53.730;10.010;2023-07-20T14:08:44;101088.78;;;18.00;100.00
20444;BME280;10381;53.730;10.010;2023-07-20T14:12:48;101052.69;;;18.57;100.00
20444;BME280;10381;53.730;10.010;2023-07-20T14:16:49;101025.38;;;18.68;100.00
20444;BME280;10381;53.730;10.010;2023-07-20T14:20:49;101016.25;;;18.40;100.00
20444;BME280;10381;53.730;10.010;2023-07-20T14:24:49;101014.72;;;18.83;100.00
20444;BME280;10381;53.730;10.010;2023-07-20T14:28:50;101020.00;;;18.68;100.00
20444;BME280;10381;53.730;10.010;2023-07-20T14:32:50;101015.91;;;19.76;100.00
20444;BME280;10381;53.730;10.010;2023-07-20T14:36:51;101022.66;;;19.87;100.00
20444;BME280;10381;53.730;10.010;2023-07-20T14:40:51;101006.19;;;19.75;100.00
20444;BME280;10381;53.730;10.010;2023-07-20T14:44:51;101006.84;;;19.99;100.00
20444;BME280;10381;53.730;10.010;2023-07-20T14:48:52;100999.41;;;19.79;100.00
20444;BME280;10381;53.730;10.010;2023-07-20T14:52:52;100995.41;;;19.39;100.00
20444;BME280;10381;53.730;10.010;2023-07-20T14:56:52;101008.03;;;19.09;100.00
20444;BME280;10381;53.730;10.010;2023-07-20T15:00:53;101004.50;;;19.08;100.00
20444;BME280;10381;53.730;10.010;2023-07-20T15:04:53;100977.94;;;18.99;100.00
20444;BME280;10381;53.730;10.010;2023-07-20T15:08:53;100996.63;;;19.36;100.00
20444;BME280;10381;53.730;10.010;2023-07-20T15:12:54;100989.06;;;19.10;100.00
20444;BME280;10381;53.730;10.010;2023-07-20T15:16:54;100993.81;;;19.45;100.00
20444;BME280;10381;53.730;10.010;2023-07-20T15:20:54;100983.66;;;19.62;100.00
20444;BME280;10381;53.730;10.010;2023-07-20T15:24:55;100968.66;;;20.10;100.00
20444;BME280;10381;53.730;10.010;2023-07-20T15:28:55;100959.34;;;21.04;100.00
20444;BME280;10381;53.730;10.010;2023-07-20T15:32:55;100932.38;;;22.72;100.00
20444;BME280;10381;53.730;10.010;2023-07-20T15:36:56;100933.25;;;22.66;100.00
20444;BME280;10381;53.730;10.010;2023-07-20T15:40:57;100936.28;;;20.25;100.00
20444;BME280;10381;53.730;10.010;2023-07-20T15:45:00;100938.75;;;19.77;100.00
20444;BME280;10381;53.730;10.010;2023-07-20T15:49:01;100934.34;;;21.23;100.00
20444;BME280;10381;53.730;10.010;2023-07-20T15:53:01;100931.06;;;21.28;100.00
20444;BME280;10381;53.730;10.010;2023-07-20T15:57:01;100934.19;;;21.32;100.00
20444;BME280;10381;53.730;10.010;2023-07-20T16:01:02;100930.59;;;21.99;100.00
20444;BME280;10381;53.730;10.010;2023-07-20T16:05:03;100929.78;;;23.49;100.00
20444;BME280;10381;53.730;10.010;2023-07-20T16:09:03;100922.81;;;22.76;100.00
20444;BME280;10381;53.730;10.010;2023-07-20T16:13:04;100927.41;;;22.62;100.00
20444;BME280;10381;53.730;10.010;2023-07-20T16:17:04;100931.22;;;22.21;100.00
20444;BME280;10381;53.730;10.010;2023-07-20T16:21:05;100922.81;;;22.83;100.00
20444;BME280;10381;53.730;10.010;2023-07-20T16:25:05;100940.72;;;23.60;100.00
20444;BME280;10381;53.730;10.010;2023-07-20T16:29:06;100937.06;;;22.96;100.00
20444;BME280;10381;53.730;10.010;2023-07-20T16:33:06;100932.44;;;21.92;100.00
20444;BME280;10381;53.730;10.010;2023-07-20T16:37:06;100915.84;;;21.68;100.00
20444;BME280;10381;53.730;10.010;2023-07-20T16:41:07;100920.00;;;22.31;100.00
20444;BME280;10381;53.730;10.010;2023-07-20T16:45:08;100918.75;;;21.87;100.00
20444;BME280;10381;53.730;10.010;2023-07-20T16:49:09;100929.97;;;22.24;100.00
20444;BME280;10381;53.730;10.010;2023-07-20T16:53:09;100916.84;;;20.93;100.00
20444;BME280;10381;53.730;10.010;2023-07-20T16:57:09;100908.94;;;21.53;100.00
20444;BME280;10381;53.730;10.010;2023-07-20T17:01:10;100912.00;;;21.30;100.00
20444;BME280;10381;53.730;10.010;2023-07-20T17:05:10;100917.25;;;22.58;100.00
20444;BME280;10381;53.730;10.010;2023-07-20T17:09:10;100925.06;;;23.37;100.00
20444;BME280;10381;53.730;10.010;2023-07-20T17:13:11;100905.47;;;22.05;100.00
20444;BME280;10381;53.730;10.010;2023-07-20T17:17:11;100916.25;;;22.45;100.00
20444;BME280;10381;53.730;10.010;2023-07-20T17:21:12;100915.00;;;22.41;100.00
20444;BME280;10381;53.730;10.010;2023-07-20T17:25:15;100909.16;;;20.55;100.00
20444;BME280;10381;53.730;10.010;2023-07-20T17:29:16;100906.38;;;20.41;100.00
20444;BME280;10381;53.730;10.010;2023-07-20T17:33:16;100903.50;;;20.78;100.00
20444;BME280;10381;53.730;10.010;2023-07-20T17:37:17;100915.03;;;18.04;100.00
20444;BME280;10381;53.730;10.010;2023-07-20T17:41:18;100934.03;;;17.94;100.00
20444;BME280;10381;53.730;10.010;2023-07-20T17:45:20;100910.41;;;19.96;100.00
20444;BME280;10381;53.730;10.010;2023-07-20T17:49:21;100906.59;;;20.12;100.00
20444;BME280;10381;53.730;10.010;2023-07-20T17:53:22;100909.63;;;19.01;100.00
20444;BME280;10381;53.730;10.010;2023-07-20T17:57:23;100913.03;;;17.75;100.00
20444;BME280;10381;53.730;10.010;2023-07-20T18:01:23;100922.63;;;17.46;100.00
20444;BME280;10381;53.730;10.010;2023-07-20T18:05:23;100925.19;;;17.08;100.00
20444;BME280;10381;53.730;10.010;2023-07-20T18:09:24;100936.91;;;17.07;100.00
20444;BME280;10381;53.730;10.010;2023-07-20T18:13:24;100956.75;;;16.81;100.00
20444;BME280;10381;53.730;10.010;2023-07-20T18:17:24;100968.28;;;16.66;100.00
20444;BME280;10381;53.730;10.010;2023-07-20T18:21:25;100995.75;;;16.43;100.00
20444;BME280;10381;53.730;10.010;2023-07-20T18:25:25;101039.84;;;16.47;100.00
20444;BME280;10381;53.730;10.010;2023-07-20T18:29:25;101057.56;;;16.56;100.00
20444;BME280;10381;53.730;10.010;2023-07-20T18:33:25;101079.34;;;16.45;100.00
20444;BME280;10381;53.730;10.010;2023-07-20T18:37:27;101112.88;;;16.23;100.00
20444;BME280;10381;53.730;10.010;2023-07-20T18:41:28;101159.34;;;16.22;100.00
20444;BME280;10381;53.730;10.010;2023-07-20T18:45:28;101192.56;;;16.19;100.00
20444;BME280;10381;53.730;10.010;2023-07-20T18:49:28;101223.28;;;16.15;100.00
20444;BME280;10381;53.730;10.010;2023-07-20T18:53:29;101224.91;;;16.00;100.00
20444;BME280;10381;53.730;10.010;2023-07-20T18:57:30;101243.38;;;15.85;100.00
20444;BME280;10381;53.730;10.010;2023-07-20T19:01:31;101263.50;;;15.71;100.00
20444;BME280;10381;53.730;10.010;2023-07-20T19:05:33;101285.78;;;15.62;100.00
20444;BME280;10381;53.730;10.010;2023-07-20T19:09:37;101305.78;;;15.58;100.00
20444;BME280;10381;53.730;10.010;2023-07-20T19:13:37;101322.53;;;15.42;100.00
20444;BME280;10381;53.730;10.010;2023-07-20T19:17:38;101350.50;;;15.38;100.00
20444;BME280;10381;53.730;10.010;2023-07-20T19:21:38;101369.50;;;15.35;100.00
20444;BME280;10381;53.730;10.010;2023-07-20T19:25:38;101366.59;;;15.28;100.00
20444;BME280;10381;53.730;10.010;2023-07-20T19:29:39;101384.81;;;15.15;100.00
20444;BME280;10381;53.730;10.010;2023-07-20T19:33:39;101412.69;;;15.03;100.00
20444;BME280;10381;53.730;10.010;2023-07-20T19:37:40;101434.09;;;14.93;100.00
20444;BME280;10381;53.730;10.010;2023-07-20T19:41:40;101454.91;;;14.89;100.00
20444;BME280;10381;53.730;10.010;2023-07-20T19:45:41;101470.53;;;14.84;100.00
20444;BME280;10381;53.730;10.010;2023-07-20T19:49:42;101491.47;;;14.79;100.00
20444;BME280;10381;53.730;10.010;2023-07-20T19:53:42;101505.53;;;14.62;100.00
20444;BME280;10381;53.730;10.010;2023-07-20T19:57:43;101510.88;;;14.52;100.00
20444;BME280;10381;53.730;10.010;2023-07-20T20:01:43;101518.19;;;14.31;100.00
20444;BME280;10381;53.730;10.010;2023-07-20T20:05:43;101520.59;;;14.04;100.00
20444;BME280;10381;53.730;10.010;2023-07-20T20:09:44;101526.47;;;13.89;100.00
20444;BME280;10381;53.730;10.010;2023-07-20T20:13:44;101542.03;;;13.64;100.00
20444;BME280;10381;53.730;10.010;2023-07-20T20:17:45;101548.19;;;13.74;100.00
20444;BME280;10381;53.730;10.010;2023-07-20T20:21:45;101551.22;;;13.50;100.00
20444;BME280;10381;53.730;10.010;2023-07-20T20:25:46;101569.69;;;13.42;100.00
20444;BME280;10381;53.730;10.010;2023-07-20T20:29:47;101596.41;;;13.10;100.00
20444;BME280;10381;53.730;10.010;2023-07-20T20:33:47;101629.94;;;13.01;100.00
20444;BME280;10381;53.730;10.010;2023-07-20T20:37:48;101677.97;;;12.78;100.00
20444;BME280;10381;53.730;10.010;2023-07-20T20:41:48;101700.97;;;12.68;100.00